createdAt,value
2023-04-28T00:00:09.777Z,10.80
2023-04-28T00:02:11.499Z,10.90
2023-04-28T00:04:13.593Z,10.90
2023-04-28T00:06:15.507Z,10.90
2023-04-28T00:08:17.363Z,10.90
2023-04-28T00:10:19.061Z,10.90
2023-04-28T00:12:20.873Z,10.80
2023-04-28T00:14:22.711Z,10.80
2023-04-28T00:16:24.450Z,10.70
2023-04-28T00:18:26.144Z,10.70
2023-04-28T00:20:27.796Z,10.70
2023-04-28T00:22:29.902Z,10.80
2023-04-28T00:24:32.654Z,10.70
2023-04-28T00:26:34.287Z,10.80
2023-04-28T00:28:35.868Z,10.80
2023-04-28T00:30:37.443Z,10.80
2023-04-28T00:32:39.046Z,10.90
2023-04-28T00:34:40.714Z,10.90
2023-04-28T00:36:42.351Z,11.00
2023-04-28T00:38:43.966Z,11.00
2023-04-28T00:40:45.640Z,10.80
2023-04-28T00:42:47.273Z,10.80
2023-04-28T00:44:48.949Z,11.00
2023-04-28T00:46:50.695Z,11.00
2023-04-28T00:48:52.512Z,11.00
2023-04-28T00:50:54.137Z,11.00
2023-04-28T00:52:56.019Z,10.90
2023-04-28T00:54:57.994Z,11.00
2023-04-28T00:56:59.652Z,11.00
2023-04-28T00:59:01.223Z,11.00
2023-04-28T01:01:06.014Z,11.00
2023-04-28T01:03:08.088Z,11.00
2023-04-28T01:05:10.391Z,11.00
2023-04-28T01:07:12.120Z,10.80
2023-04-28T01:09:13.726Z,10.80
2023-04-28T01:11:15.416Z,10.90
2023-04-28T01:13:20.055Z,11.00
2023-04-28T01:15:21.986Z,11.00
2023-04-28T01:17:23.849Z,11.00
2023-04-28T01:19:25.482Z,11.00
2023-04-28T01:21:30.294Z,11.10
2023-04-28T01:23:31.920Z,11.10
2023-04-28T01:25:33.552Z,11.20
2023-04-28T01:27:35.296Z,11.10
2023-04-28T01:29:36.928Z,11.10
2023-04-28T01:31:38.670Z,11.20
2023-04-28T01:33:40.340Z,11.10
2023-04-28T01:35:42.022Z,11.10
2023-04-28T01:37:43.667Z,11.10
2023-04-28T01:39:45.358Z,11.00
2023-04-28T01:41:47.079Z,11.10
2023-04-28T01:43:48.747Z,11.10
2023-04-28T01:45:51.375Z,11.00
2023-04-28T01:47:53.011Z,10.90
2023-04-28T01:49:54.645Z,11.00
2023-04-28T01:51:56.265Z,11.00
2023-04-28T01:53:57.897Z,11.00
2023-04-28T01:56:24.137Z,11.00
2023-04-28T01:58:25.968Z,11.10
2023-04-28T02:00:27.655Z,11.00
2023-04-28T02:02:29.413Z,11.00
2023-04-28T02:04:31.231Z,11.00
2023-04-28T02:06:32.973Z,11.00
2023-04-28T02:08:34.652Z,11.10
2023-04-28T02:10:36.312Z,11.10
2023-04-28T02:12:37.971Z,11.10
2023-04-28T02:14:39.558Z,11.00
2023-04-28T02:16:41.185Z,11.00
2023-04-28T02:18:42.999Z,10.90
2023-04-28T02:20:44.681Z,10.90
2023-04-28T02:22:46.260Z,11.00
2023-04-28T02:24:47.834Z,11.00
2023-04-28T02:26:49.480Z,11.00
2023-04-28T02:28:51.344Z,11.00
2023-04-28T02:30:52.980Z,10.90
2023-04-28T02:32:54.611Z,10.90
2023-04-28T02:34:56.296Z,11.00
2023-04-28T02:36:57.872Z,11.00
2023-04-28T02:38:59.468Z,11.00
2023-04-28T02:41:02.443Z,11.10
2023-04-28T02:43:04.039Z,11.10
2023-04-28T02:45:06.365Z,11.10
2023-04-28T02:47:08.068Z,11.00
2023-04-28T02:49:09.714Z,11.10
2023-04-28T02:51:11.393Z,11.10
2023-04-28T02:53:13.166Z,11.00
2023-04-28T02:55:23.499Z,11.10
2023-04-28T02:57:25.136Z,11.00
2023-04-28T02:59:27.259Z,11.00
2023-04-28T03:01:28.982Z,11.00
2023-04-28T03:03:30.749Z,11.00
2023-04-28T03:05:32.520Z,11.00
2023-04-28T03:07:34.143Z,11.00
2023-04-28T03:09:36.015Z,11.10
2023-04-28T03:11:37.686Z,11.00
2023-04-28T03:13:39.278Z,11.10
2023-04-28T03:15:41.044Z,11.10
2023-04-28T03:17:43.299Z,11.00
2023-04-28T03:19:45.039Z,10.90
2023-04-28T03:21:47.761Z,10.90
2023-04-28T03:23:49.439Z,11.00
2023-04-28T03:25:51.044Z,11.10
2023-04-28T03:27:52.715Z,11.10
2023-04-28T03:29:54.283Z,10.90
2023-04-28T03:31:55.882Z,10.80
2023-04-28T03:33:59.518Z,10.90
2023-04-28T03:36:07.076Z,10.90
2023-04-28T03:38:08.654Z,10.80
2023-04-28T03:40:10.611Z,10.70
2023-04-28T03:42:12.465Z,10.70
2023-04-28T03:44:14.121Z,10.70
2023-04-28T03:46:15.867Z,10.80
2023-04-28T03:48:17.593Z,10.80
2023-04-28T03:50:19.250Z,10.80
2023-04-28T03:52:20.951Z,10.80
2023-04-28T03:54:22.526Z,10.80
2023-04-28T03:56:24.262Z,10.80
2023-04-28T03:58:25.929Z,10.80
2023-04-28T04:00:27.555Z,10.90
2023-04-28T04:02:29.241Z,10.90
2023-04-28T04:04:31.476Z,11.00
2023-04-28T04:06:34.016Z,11.00
2023-04-28T04:08:35.784Z,10.90
2023-04-28T04:10:37.359Z,10.80
2023-04-28T04:12:38.908Z,10.90
2023-04-28T04:14:40.766Z,10.90
2023-04-28T04:16:42.556Z,10.90
2023-04-28T04:18:44.110Z,10.90
2023-04-28T04:20:45.796Z,10.90
2023-04-28T04:22:47.422Z,10.90
2023-04-28T04:24:49.034Z,11.00
2023-04-28T04:26:50.743Z,11.00
2023-04-28T04:28:52.362Z,11.00
2023-04-28T04:30:54.004Z,11.00
2023-04-28T04:32:55.613Z,11.00
2023-04-28T04:34:57.507Z,11.00
2023-04-28T04:36:59.157Z,11.00
2023-04-28T04:39:00.882Z,11.00
2023-04-28T04:41:02.542Z,11.00
2023-04-28T04:43:04.206Z,11.00
2023-04-28T04:45:06.166Z,11.00
2023-04-28T04:47:07.824Z,11.10
2023-04-28T04:49:09.405Z,11.00
2023-04-28T04:51:11.425Z,11.10
2023-04-28T04:53:16.088Z,11.20
2023-04-28T04:55:18.166Z,11.20
2023-04-28T04:57:19.818Z,11.10
2023-04-28T04:59:21.379Z,11.10
2023-04-28T05:01:23.118Z,11.20
2023-04-28T05:03:24.918Z,11.30
2023-04-28T05:05:26.978Z,11.20
2023-04-28T05:07:28.565Z,11.20
2023-04-28T05:09:30.713Z,11.20
2023-04-28T05:11:32.267Z,11.20
2023-04-28T05:13:33.951Z,11.20
2023-04-28T05:15:35.592Z,11.20
2023-04-28T05:17:37.213Z,11.20
2023-04-28T05:19:38.886Z,11.20
2023-04-28T05:21:40.473Z,11.20
2023-04-28T05:23:42.091Z,11.20
2023-04-28T05:25:43.952Z,11.20
2023-04-28T05:27:45.566Z,11.30
2023-04-28T05:29:47.247Z,11.30
2023-04-28T05:31:48.986Z,11.30
2023-04-28T05:33:50.766Z,11.30
2023-04-28T05:35:52.418Z,11.20
2023-04-28T05:37:54.069Z,11.30
2023-04-28T05:39:55.936Z,11.30
2023-04-28T05:41:59.089Z,11.40
2023-04-28T05:44:00.803Z,11.40
2023-04-28T05:46:02.580Z,11.40
2023-04-28T05:48:05.106Z,11.40
2023-04-28T05:50:07.312Z,11.40
2023-04-28T05:52:08.999Z,11.40
2023-04-28T05:54:10.798Z,11.30
2023-04-28T05:56:12.491Z,11.30
2023-04-28T05:58:14.201Z,11.30
2023-04-28T06:00:16.403Z,11.40
2023-04-28T06:02:19.047Z,11.40
2023-04-28T06:04:22.655Z,11.40
2023-04-28T06:06:25.878Z,11.50
2023-04-28T06:08:27.640Z,11.50
2023-04-28T06:10:29.412Z,11.50
2023-04-28T06:12:31.485Z,11.60
2023-04-28T06:14:33.180Z,11.60
2023-04-28T06:16:34.815Z,11.60
2023-04-28T06:18:36.517Z,11.60
2023-04-28T06:20:38.097Z,11.60
2023-04-28T06:22:40.954Z,11.60
2023-04-28T06:24:44.021Z,11.50
2023-04-28T06:26:45.605Z,11.50
2023-04-28T06:28:47.330Z,11.50
2023-04-28T06:30:49.112Z,11.60
2023-04-28T06:32:51.668Z,11.60
2023-04-28T06:34:53.521Z,11.60
2023-04-28T06:36:56.044Z,11.60
2023-04-28T06:38:57.679Z,11.70
2023-04-28T06:40:59.348Z,11.70
2023-04-28T06:43:01.040Z,11.70
2023-04-28T06:45:02.935Z,11.70
2023-04-28T06:47:04.686Z,11.70
2023-04-28T06:49:06.694Z,11.70
2023-04-28T06:51:08.294Z,11.70
2023-04-28T06:53:09.894Z,11.70
2023-04-28T06:55:14.363Z,11.70
2023-04-28T06:57:16.391Z,11.80
2023-04-28T06:59:18.099Z,11.80
2023-04-28T07:01:19.816Z,11.80
2023-04-28T07:03:21.538Z,11.80
2023-04-28T07:05:23.229Z,11.80
2023-04-28T07:07:24.907Z,11.90
2023-04-28T07:09:26.637Z,11.80
2023-04-28T07:11:28.778Z,11.80
2023-04-28T07:13:31.121Z,11.80
2023-04-28T07:15:32.765Z,11.80
2023-04-28T07:17:34.923Z,11.80
2023-04-28T07:19:36.906Z,11.80
2023-04-28T07:21:38.590Z,11.80
2023-04-28T07:23:40.971Z,11.80
2023-04-28T07:25:43.106Z,11.80
2023-04-28T07:27:45.688Z,11.80
2023-04-28T07:29:47.255Z,11.80
2023-04-28T07:31:49.101Z,11.90
2023-04-28T07:33:50.807Z,11.80
2023-04-28T07:35:53.119Z,11.80
2023-04-28T07:37:55.744Z,11.90
2023-04-28T07:39:57.531Z,12.00
2023-04-28T07:41:59.864Z,12.10
2023-04-28T07:44:01.517Z,12.10
2023-04-28T07:46:03.264Z,12.20
2023-04-28T07:48:05.207Z,12.20
2023-04-28T07:50:07.388Z,12.20
2023-04-28T07:52:09.847Z,12.20
2023-04-28T07:54:11.866Z,12.20
2023-04-28T07:56:13.708Z,12.20
2023-04-28T07:58:15.448Z,12.30
2023-04-28T08:00:17.950Z,12.30
2023-04-28T08:02:20.501Z,12.30
2023-04-28T08:04:22.811Z,12.40
2023-04-28T08:06:25.099Z,12.30
2023-04-28T08:08:27.068Z,12.40
2023-04-28T08:10:28.996Z,12.40
2023-04-28T08:12:31.192Z,12.40
2023-04-28T08:14:32.898Z,12.30
2023-04-28T08:16:38.344Z,12.20
2023-04-28T08:18:40.238Z,12.30
2023-04-28T08:20:41.988Z,12.30
2023-04-28T08:22:43.739Z,12.30
2023-04-28T08:24:45.414Z,12.40
2023-04-28T08:26:46.988Z,12.40
2023-04-28T08:28:48.582Z,12.40
2023-04-28T08:30:50.350Z,12.50
2023-04-28T08:32:52.284Z,12.50
2023-04-28T08:34:54.002Z,12.50
2023-04-28T08:36:55.688Z,12.60
2023-04-28T08:38:59.391Z,12.60
2023-04-28T08:41:03.897Z,12.60
2023-04-28T08:43:06.188Z,12.60
2023-04-28T08:45:08.714Z,12.70
2023-04-28T08:47:14.197Z,12.70
2023-04-28T08:49:16.916Z,12.70
2023-04-28T08:51:28.637Z,12.60
2023-04-28T08:53:30.484Z,12.70
2023-04-28T08:55:32.479Z,12.70
2023-04-28T08:57:44.110Z,12.80
2023-04-28T08:59:45.808Z,12.80
2023-04-28T09:01:50.846Z,12.90
2023-04-28T09:03:54.142Z,12.90
2023-04-28T09:05:56.222Z,12.90
2023-04-28T09:08:01.824Z,13.00
2023-04-28T09:10:17.622Z,13.10
2023-04-28T09:12:19.389Z,13.10
2023-04-28T09:14:21.316Z,13.10
2023-04-28T09:16:22.980Z,13.10
2023-04-28T09:18:24.588Z,13.00
2023-04-28T09:20:27.659Z,13.00
2023-04-28T09:22:29.592Z,13.10
2023-04-28T09:24:32.114Z,13.20
2023-04-28T09:26:53.498Z,13.20
2023-04-28T09:29:11.597Z,13.30
2023-04-28T09:31:28.201Z,13.30
2023-04-28T09:33:30.186Z,13.40
2023-04-28T09:35:41.652Z,13.50
2023-04-28T09:37:43.554Z,13.50
2023-04-28T09:39:46.016Z,13.50
2023-04-28T09:41:47.656Z,13.50
2023-04-28T09:43:50.141Z,13.50
2023-04-28T09:45:52.540Z,13.50
2023-04-28T09:48:09.057Z,13.50
2023-04-28T09:50:14.748Z,13.60
2023-04-28T09:52:17.088Z,13.70
2023-04-28T09:54:21.081Z,13.80
2023-04-28T09:56:25.577Z,14.00
2023-04-28T09:58:28.445Z,14.20
2023-04-28T10:00:30.686Z,14.40
2023-04-28T10:02:43.502Z,14.40
2023-04-28T10:04:47.042Z,14.50
2023-04-28T10:06:48.872Z,14.50
2023-04-28T10:08:51.076Z,14.50
2023-04-28T10:10:55.550Z,14.70
2023-04-28T10:12:57.433Z,14.90
2023-04-28T10:14:59.867Z,15.00
2023-04-28T10:17:03.202Z,15.20
2023-04-28T10:19:05.369Z,15.40
2023-04-28T10:21:08.009Z,15.50
2023-04-28T10:23:28.401Z,15.50
2023-04-28T10:25:31.931Z,15.50
2023-04-28T10:27:34.209Z,15.30
2023-04-28T10:29:36.316Z,15.50
2023-04-28T10:31:38.074Z,15.70
2023-04-28T10:33:40.354Z,15.80
2023-04-28T10:35:43.305Z,15.80
2023-04-28T10:38:14.740Z,15.70
2023-04-28T10:40:35.060Z,15.80
2023-04-28T10:42:51.558Z,15.90
2023-04-28T10:44:53.182Z,15.90
2023-04-28T10:47:04.969Z,16.00
2023-04-28T10:49:06.976Z,16.00
2023-04-28T10:51:12.950Z,16.00
2023-04-28T10:53:14.789Z,15.90
2023-04-28T10:55:39.890Z,16.00
2023-04-28T10:57:41.623Z,16.00
2023-04-28T10:59:43.585Z,16.00
2023-04-28T11:01:45.898Z,16.00
2023-04-28T11:03:48.011Z,16.20
2023-04-28T11:06:10.090Z,16.40
2023-04-28T11:08:30.206Z,16.60
2023-04-28T11:10:50.906Z,16.70
2023-04-28T11:13:11.179Z,16.90
2023-04-28T11:15:13.257Z,17.00
2023-04-28T11:17:17.206Z,17.10
2023-04-28T11:19:20.215Z,17.20
2023-04-28T11:21:22.557Z,17.30
2023-04-28T11:23:28.434Z,17.60
2023-04-28T11:25:50.129Z,17.70
2023-04-28T11:27:51.722Z,17.70
2023-04-28T11:29:53.495Z,17.70
2023-04-28T11:31:55.211Z,17.60
2023-04-28T11:33:58.966Z,17.40
2023-04-28T11:36:00.956Z,17.30
2023-04-28T11:38:04.306Z,17.20
2023-04-28T11:40:12.988Z,17.20
2023-04-28T11:42:14.715Z,17.10
2023-04-28T11:44:18.032Z,17.20
2023-04-28T11:46:21.780Z,17.30
2023-04-28T11:48:23.605Z,17.30
2023-04-28T11:50:45.446Z,17.40
2023-04-28T11:52:52.379Z,17.50
2023-04-28T11:54:56.262Z,17.60
2023-04-28T11:56:58.533Z,17.50
2023-04-28T11:59:04.529Z,17.40
2023-04-28T12:01:06.735Z,17.40
2023-04-28T12:03:08.453Z,17.30
2023-04-28T12:05:10.872Z,17.30
2023-04-28T12:07:19.116Z,17.40
2023-04-28T12:09:25.808Z,17.50
2023-04-28T12:11:27.595Z,17.50
2023-04-28T12:13:29.225Z,17.60
2023-04-28T12:15:40.011Z,17.50
2023-04-28T12:17:42.438Z,17.50
2023-04-28T12:19:45.721Z,17.50
2023-04-28T12:22:03.986Z,17.50
2023-04-28T12:24:15.024Z,17.50
2023-04-28T12:26:25.377Z,17.40
2023-04-28T12:28:38.015Z,17.50
2023-04-28T12:30:41.795Z,17.70
2023-04-28T12:32:44.436Z,17.90
2023-04-28T12:34:46.681Z,17.90
2023-04-28T12:36:48.561Z,18.00
2023-04-28T12:38:50.223Z,17.90
2023-04-28T12:40:52.417Z,17.90
2023-04-28T12:42:54.306Z,17.90
2023-04-28T12:44:56.051Z,17.90
2023-04-28T12:46:57.688Z,17.80
2023-04-28T12:48:59.287Z,17.80
2023-04-28T12:51:00.909Z,17.80
2023-04-28T12:53:02.667Z,17.80
2023-04-28T12:55:04.794Z,17.80
2023-04-28T12:57:06.652Z,17.70
2023-04-28T12:59:08.609Z,17.70
2023-04-28T13:01:10.495Z,17.60
2023-04-28T13:03:12.272Z,17.50
2023-04-28T13:05:14.584Z,17.50
2023-04-28T13:07:16.357Z,17.50
2023-04-28T13:09:18.073Z,17.60
2023-04-28T13:11:22.648Z,17.50
2023-04-28T13:13:24.942Z,17.50
2023-04-28T13:15:27.218Z,17.20
2023-04-28T13:17:28.840Z,17.00
2023-04-28T13:19:31.468Z,17.00
2023-04-28T13:21:33.177Z,16.80
2023-04-28T13:23:34.792Z,16.80
2023-04-28T13:25:37.455Z,16.90
2023-04-28T13:27:40.659Z,17.00
2023-04-28T13:29:43.666Z,17.30
2023-04-28T13:31:45.579Z,17.80
2023-04-28T13:33:47.221Z,18.40
2023-04-28T13:35:48.844Z,18.30
2023-04-28T13:37:50.503Z,19.50
2023-04-28T13:39:52.272Z,19.40
2023-04-28T13:41:53.938Z,18.90
2023-04-28T13:43:55.652Z,18.60
2023-04-28T13:45:57.496Z,18.40
2023-04-28T13:47:59.242Z,18.10
2023-04-28T13:50:01.013Z,17.90
2023-04-28T13:52:03.569Z,17.60
2023-04-28T13:54:08.094Z,17.40
2023-04-28T13:56:09.750Z,17.30
2023-04-28T13:58:11.521Z,17.20
2023-04-28T14:00:13.582Z,17.10
2023-04-28T14:02:15.312Z,17.10
2023-04-28T14:04:17.143Z,17.20
2023-04-28T14:06:21.399Z,17.20
2023-04-28T14:08:24.435Z,17.20
2023-04-28T14:10:27.511Z,17.20
2023-04-28T14:12:29.101Z,17.20
2023-04-28T14:14:31.120Z,17.20
2023-04-28T14:16:32.786Z,17.30
2023-04-28T14:18:34.852Z,17.30
2023-04-28T14:20:36.478Z,17.30
2023-04-28T14:22:38.851Z,17.20
2023-04-28T14:24:42.101Z,17.20
2023-04-28T14:26:44.228Z,17.10
2023-04-28T14:28:48.025Z,17.00
2023-04-28T14:30:50.102Z,16.90
2023-04-28T14:32:51.876Z,16.80
2023-04-28T14:34:53.847Z,16.80
2023-04-28T14:36:56.053Z,16.80
2023-04-28T14:38:58.301Z,17.20
2023-04-28T14:40:59.996Z,17.60
2023-04-28T14:43:01.588Z,17.80
2023-04-28T14:45:04.245Z,17.90
2023-04-28T14:47:05.971Z,17.90
2023-04-28T14:49:09.256Z,17.90
2023-04-28T14:51:10.988Z,17.90
2023-04-28T14:53:12.690Z,17.90
2023-04-28T14:55:14.450Z,17.90
2023-04-28T14:57:16.475Z,17.80
2023-04-28T14:59:18.789Z,17.60
2023-04-28T15:01:20.579Z,17.40
2023-04-28T15:03:22.827Z,17.50
2023-04-28T15:05:24.952Z,17.40
2023-04-28T15:07:31.434Z,17.40
2023-04-28T15:09:33.850Z,17.40
2023-04-28T15:11:35.517Z,17.30
2023-04-28T15:13:37.603Z,17.20
2023-04-28T15:15:41.598Z,17.20
2023-04-28T15:17:43.711Z,17.20
2023-04-28T15:19:48.574Z,17.10
2023-04-28T15:21:55.767Z,17.00
2023-04-28T15:24:13.089Z,17.00
2023-04-28T15:26:15.020Z,16.90
2023-04-28T15:28:16.877Z,16.80
2023-04-28T15:30:18.968Z,16.70
2023-04-28T15:32:20.593Z,16.70
2023-04-28T15:34:22.815Z,16.60
2023-04-28T15:36:24.586Z,16.60
2023-04-28T15:38:29.876Z,16.50
2023-04-28T15:40:31.970Z,16.50
2023-04-28T15:42:34.131Z,16.40
2023-04-28T15:44:38.258Z,16.30
2023-04-28T15:46:40.004Z,16.30
2023-04-28T15:48:41.839Z,16.20
2023-04-28T15:50:47.466Z,16.20
2023-04-28T15:58:39.425Z,16.10
2023-04-28T16:00:44.799Z,16.10
2023-04-28T16:02:47.315Z,16.10
2023-04-28T16:09:03.101Z,16.00
2023-04-28T16:21:03.961Z,15.80
2023-04-28T16:23:14.873Z,15.80
2023-04-28T16:25:30.402Z,15.80
2023-04-28T16:27:46.774Z,15.70
2023-04-28T16:29:56.573Z,15.70
2023-04-28T16:33:40.542Z,15.60
2023-04-28T16:35:35.454Z,15.50
2023-04-28T16:38:23.264Z,15.60
2023-04-28T16:40:59.399Z,15.50
2023-04-28T16:43:01.424Z,15.40
2023-04-28T16:45:16.148Z,15.50
2023-04-28T16:47:21.012Z,15.50
2023-04-28T16:52:14.592Z,15.70
2023-04-28T16:54:19.359Z,15.80
2023-04-28T16:56:21.878Z,15.90
2023-04-28T17:00:42.228Z,15.90
2023-04-28T17:02:51.792Z,15.90
2023-04-28T17:04:54.133Z,15.80
2023-04-28T17:07:25.595Z,15.80
2023-04-28T17:09:51.040Z,15.80
2023-04-28T17:12:07.095Z,15.80
2023-04-28T17:14:09.187Z,15.80
2023-04-28T17:16:34.946Z,15.70
2023-04-28T17:18:42.802Z,15.70
2023-04-28T17:20:48.305Z,15.70
2023-04-28T17:22:52.590Z,15.70
2023-04-28T17:25:00.606Z,15.70
2023-04-28T17:27:02.511Z,15.70
2023-04-28T17:29:04.932Z,15.70
2023-04-28T17:31:06.732Z,15.70
2023-04-28T17:33:11.942Z,15.80
2023-04-28T17:35:14.116Z,15.80
2023-04-28T17:37:16.293Z,15.80
2023-04-28T17:39:18.184Z,15.80
2023-04-28T17:41:20.373Z,15.90
2023-04-28T17:51:05.585Z,16.10
2023-04-28T17:53:11.935Z,16.00
2023-04-28T17:55:22.310Z,16.00
2023-04-28T17:57:35.224Z,15.90
2023-04-28T17:59:53.807Z,15.80
2023-04-28T18:01:56.372Z,15.70
2023-04-28T18:03:58.593Z,15.60
2023-04-28T18:06:00.346Z,15.60
2023-04-28T18:08:05.054Z,15.50
2023-04-28T18:10:07.270Z,15.40
2023-04-28T18:12:09.284Z,15.40
2023-04-28T18:14:11.086Z,15.30
2023-04-28T18:16:14.903Z,15.20
2023-04-28T18:18:16.970Z,15.20
2023-04-28T18:20:18.900Z,15.10
2023-04-28T18:22:20.776Z,15.10
2023-04-28T18:24:22.954Z,14.90
2023-04-28T18:26:24.721Z,14.90
2023-04-28T18:28:26.343Z,14.80
2023-04-28T18:30:37.634Z,14.90
2023-04-28T18:32:39.396Z,14.90
2023-04-28T18:34:41.059Z,15.00
2023-04-28T18:36:42.715Z,15.00
2023-04-28T18:38:44.460Z,14.90
2023-04-28T18:40:46.036Z,15.00
2023-04-28T18:42:48.172Z,14.90
2023-04-28T18:44:59.061Z,14.90
2023-04-28T18:47:00.825Z,14.80
2023-04-28T18:49:03.477Z,14.80
2023-04-28T18:51:05.506Z,14.80
2023-04-28T18:53:10.259Z,14.70
2023-04-28T18:55:11.926Z,14.70
2023-04-28T18:57:14.030Z,14.60
2023-04-28T18:59:15.773Z,14.50
2023-04-28T19:01:17.801Z,14.50
2023-04-28T19:03:20.081Z,14.40
2023-04-28T19:05:22.483Z,14.30
2023-04-28T19:07:24.174Z,14.30
2023-04-28T19:09:25.822Z,14.30
2023-04-28T19:11:27.578Z,14.20
2023-04-28T19:13:29.505Z,14.20
2023-04-28T19:15:32.952Z,14.10
2023-04-28T19:17:34.765Z,14.10
2023-04-28T19:19:36.428Z,14.00
2023-04-28T19:21:40.577Z,13.90
2023-04-28T19:23:43.201Z,13.90
2023-04-28T19:25:44.941Z,13.90
2023-04-28T19:27:46.792Z,13.80
2023-04-28T19:29:48.805Z,13.70
2023-04-28T19:31:50.840Z,13.60
2023-04-28T19:33:52.483Z,13.60
2023-04-28T19:35:57.223Z,13.70
2023-04-28T19:37:59.246Z,13.60
2023-04-28T19:40:01.360Z,13.50
2023-04-28T19:42:04.369Z,13.50
2023-04-28T19:44:05.987Z,13.50
2023-04-28T19:46:08.295Z,13.50
2023-04-28T19:48:10.103Z,13.50
2023-04-28T19:50:11.783Z,13.40
2023-04-28T19:52:13.464Z,13.40
2023-04-28T19:54:16.608Z,13.40
2023-04-28T19:56:18.427Z,13.30
2023-04-28T19:58:20.770Z,13.30
2023-04-28T20:00:24.321Z,13.30
2023-04-28T20:02:26.189Z,13.40
2023-04-28T20:04:30.454Z,13.20
2023-04-28T20:06:33.076Z,13.20
2023-04-28T20:08:34.765Z,13.20
2023-04-28T20:10:36.472Z,13.30
2023-04-28T20:12:38.729Z,13.20
2023-04-28T20:14:40.708Z,13.10
2023-04-28T20:16:44.503Z,13.00
2023-04-28T20:18:46.651Z,12.90
2023-04-28T20:20:48.253Z,12.90
2023-04-28T20:22:50.871Z,12.90
2023-04-28T20:24:52.593Z,12.90
2023-04-28T20:26:54.630Z,12.80
2023-04-28T20:28:57.258Z,12.80
2023-04-28T20:30:59.294Z,12.90
2023-04-28T20:33:01.358Z,12.80
2023-04-28T20:35:03.545Z,12.80
2023-04-28T20:37:06.644Z,12.80
2023-04-28T20:39:10.901Z,12.70
2023-04-28T20:41:12.666Z,12.80
2023-04-28T20:43:14.357Z,12.80
2023-04-28T20:45:16.567Z,12.70
2023-04-28T20:47:18.335Z,12.80
2023-04-28T20:49:20.040Z,12.80
2023-04-28T20:51:21.849Z,12.80
2023-04-28T20:53:23.696Z,12.90
2023-04-28T20:55:26.725Z,12.90
2023-04-28T20:57:28.869Z,12.80
2023-04-28T20:59:32.612Z,12.70
2023-04-28T21:01:34.729Z,12.60
2023-04-28T21:03:36.516Z,12.60
2023-04-28T21:05:38.528Z,12.60
2023-04-28T21:07:40.374Z,12.60
2023-04-28T21:09:42.232Z,12.50
2023-04-28T21:11:43.944Z,12.60
2023-04-28T21:13:45.698Z,12.60
2023-04-28T21:15:47.369Z,12.70
2023-04-28T21:17:49.121Z,12.70
2023-04-28T21:19:51.051Z,12.70
2023-04-28T21:21:52.908Z,12.70
2023-04-28T21:23:55.518Z,12.70
2023-04-28T21:25:57.522Z,12.70
2023-04-28T21:28:01.505Z,12.70
2023-04-28T21:30:03.719Z,12.70
2023-04-28T21:32:05.472Z,12.80
2023-04-28T21:34:07.625Z,12.80
2023-04-28T21:36:09.486Z,12.80
2023-04-28T21:38:11.206Z,12.80
2023-04-28T21:40:13.636Z,12.80
2023-04-28T21:42:15.337Z,12.80
2023-04-28T21:44:17.124Z,12.80
2023-04-28T21:46:19.185Z,12.80
2023-04-28T21:48:21.378Z,12.90
2023-04-28T21:50:23.398Z,12.90
2023-04-28T21:52:25.045Z,12.80
2023-04-28T21:54:26.684Z,12.80
2023-04-28T21:56:28.829Z,12.70
2023-04-28T21:58:30.545Z,12.70
2023-04-28T22:00:38.632Z,12.70
2023-04-28T22:02:40.674Z,12.70
2023-04-28T22:04:42.426Z,12.70
2023-04-28T22:06:44.641Z,12.80
2023-04-28T22:08:46.622Z,12.70
2023-04-28T22:10:48.475Z,12.80
2023-04-28T22:12:50.228Z,12.80
2023-04-28T22:14:51.859Z,12.80
2023-04-28T22:16:53.753Z,12.80
2023-04-28T22:18:55.460Z,12.80
2023-04-28T22:20:57.278Z,12.80
2023-04-28T22:22:59.080Z,12.70
2023-04-28T22:25:00.709Z,12.70
2023-04-28T22:27:02.331Z,12.70
2023-04-28T22:29:04.093Z,12.70
2023-04-28T22:31:06.212Z,12.60
2023-04-28T22:33:08.077Z,12.60
2023-04-28T22:35:09.993Z,12.50
2023-04-28T22:37:11.957Z,12.40
2023-04-28T22:39:13.597Z,12.30
2023-04-28T22:41:15.373Z,12.30
2023-04-28T22:43:17.381Z,12.40
2023-04-28T22:45:18.986Z,12.30
2023-04-28T22:47:20.948Z,12.20
2023-04-28T22:49:25.786Z,12.30
2023-04-28T22:51:27.478Z,12.20
2023-04-28T22:53:29.504Z,12.20
2023-04-28T22:55:31.438Z,12.20
2023-04-28T22:57:33.063Z,12.20
2023-04-28T22:59:34.717Z,12.10
2023-04-28T23:01:36.508Z,12.10
2023-04-28T23:03:38.757Z,12.10
2023-04-28T23:05:40.732Z,12.10
2023-04-28T23:07:42.392Z,12.00
2023-04-28T23:09:44.360Z,12.00
2023-04-28T23:11:46.125Z,12.10
2023-04-28T23:13:47.812Z,12.10
2023-04-28T23:15:49.492Z,12.30
2023-04-28T23:17:51.180Z,12.40
2023-04-28T23:19:52.931Z,12.40
2023-04-28T23:21:54.650Z,12.40
2023-04-28T23:23:56.321Z,12.30
2023-04-28T23:25:58.099Z,12.30
2023-04-28T23:27:59.784Z,12.20
2023-04-28T23:30:01.433Z,12.20
2023-04-28T23:32:03.757Z,12.10
2023-04-28T23:34:06.231Z,12.10
2023-04-28T23:36:07.989Z,12.10
2023-04-28T23:38:09.713Z,12.10
2023-04-28T23:40:11.798Z,12.10
2023-04-28T23:42:13.411Z,12.00
2023-04-28T23:44:15.169Z,12.00
2023-04-28T23:46:16.824Z,11.90
2023-04-28T23:48:18.614Z,11.90
2023-04-28T23:50:20.346Z,11.80
2023-04-28T23:52:22.024Z,11.80
2023-04-28T23:54:23.691Z,11.80
2023-04-28T23:56:25.396Z,11.80
2023-04-28T23:58:27.062Z,11.90
